Jepson Prairie Reserve, California Weather observations

Data are for 10 minute period ending at time listed.
 Day   Time   Solar   Ave.   Ave.  Ave.  Vector  Max.   Baro.   Total    
  of    of     Rad.   Air    Rel.  Wind   Wind   Wind  Press.  Precip.   
Year   Day            Temp.  Hum.  Speed  Dir.   Gust                    
2017   (PST)  Kw/m2    F      %     mph   deg.    mph    mb.     in.     
-------------------------------------------------------------------------
  22   13:10   0.21   66.6    76   11.2   214    14.0   1003.1    0.00 
  22   13:20   0.31   64.5    79   12.1   230    15.8   1003.1    0.00 
  22   13:30   0.24   64.6    80   11.4   226    14.1   1002.7    0.00 
  22   13:40   0.23   74.2    85   12.2   215    15.6   1002.7    0.00 
  22   13:50   0.27   78.0    82   11.1   204    14.1   1002.7    0.00 
  22   14:00   0.26   83.3    82   11.2   205    13.7   1002.4    0.00 
  22   14:10   0.17   74.8    79   12.1   210    14.9   1002.0    0.00 
  22   14:20   0.10   72.5    77   12.1   210    14.7   1002.0    0.00 
  22   14:30   0.12   72.0    80   10.0   215    12.3   1001.7    0.00 
  22   14:40   0.11   70.2    81    9.8   231    12.5   1001.7    0.00 
  22   14:50   0.07   71.0    83    9.1   230    11.4   1001.4    0.00 
  22   15:00   0.04   72.4    84   10.1   232    13.2   1001.4    0.00 
  22   15:10   0.02   66.5    81   14.1   221    30.4   1001.4    0.02 
  22   15:20   0.01   60.5    82   17.6   167    21.5   1001.7    0.03 
  22   15:30   0.01   55.5    87   15.9   168    21.2   1002.0    0.04 
  22   15:40   0.01   52.5    89   14.1   181    20.2   1002.0    0.04 
  22   15:50   0.01   52.6    90   11.6   188    15.4   1002.0    0.02 
  22   16:00   0.01   53.0    91   11.3   200    15.3   1002.0    0.03 
  22   16:10   0.01   52.1    90   13.2   206    17.7   1002.0    0.01 
  22   16:20   0.01   52.1    89   13.6   205    16.8   1002.0    0.00 
  22   16:30   0.01   52.0    93   13.8   205    17.3   1002.0    0.02 
  22   16:40   0.01   52.2    93   14.4   206    19.4   1002.0    0.01 
  22   16:50   0.01   52.5    91   19.2   205    27.1   1002.4    0.00 
  22   17:00   0.00   52.4    90   25.4   222    31.4   1002.4    0.01 
  22   17:10   0.00   51.8    90   20.8   226    27.3   1002.7    0.02 
  22   17:20   0.00   52.5    93   15.5   224    19.4   1002.7    0.02 
  22   17:30   0.00   52.3    94   15.3   215    19.1   1002.7    0.02 
  22   17:40   0.00   52.1    92   15.4   219    18.7   1002.7    0.01 
  22   17:50   0.00   52.3    93   14.6   220    17.2   1002.7    0.00 
  22   18:00   0.00   51.5    93   11.4   218    15.9   1002.7    0.00 
  22   18:10   0.00   51.3    94    7.4   198    10.9   1002.4    0.00 
  22   18:20   0.00   51.1    94    4.7   169     6.7   1002.0    0.00 
  22   18:30   0.00   50.5    94    8.0   187    10.6   1002.4    0.00 
  22   18:40   0.00   50.0    95   10.6   182    13.0   1002.7    0.00 
  22   18:50   0.00   49.9    95   11.2   185    13.7   1002.7    0.00 
  22   19:00   0.00   49.9    95   10.7   187    12.2   1002.7    0.00 
  22   19:10   0.00   49.9    95   10.6   193    12.0   1002.7    0.00 
  22   19:20   0.00   50.0    95    9.9   196    12.9   1003.1    0.00 
  22   19:30   0.00   50.0    94    8.5   191    11.0   1003.1    0.00 
  22   19:40   0.00   49.7    94    6.1   184     8.6   1002.7    0.00 
  22   19:50   0.00   49.3    94    6.4   187     8.7   1002.7    0.00 
  22   20:00   0.00   49.4    94    8.0   190    12.3   1002.7    0.00 
  22   20:10   0.00   49.7    94    9.6   190    13.4   1002.7    0.00 
  22   20:20   0.00   49.8    93   13.5   180    18.0   1002.4    0.00 
  22   20:30   0.00   50.4    90   14.0   195    20.2   1002.7    0.00 
  22   20:40   0.00   50.5    87   17.6   207    21.6   1002.7    0.00 
  22   20:50   0.00   50.3    87   13.0   208    19.2   1002.7    0.00 
  22   21:00   0.00   50.1    88    8.9   204    11.2   1002.7    0.00 
  22   21:10   0.00   50.0    89    8.3   202    11.6   1003.1    0.00 
  22   21:20   0.00   50.0    90    6.2   216     8.2   1003.4    0.00 
  22   21:30   0.00   50.0    91    3.9   273     5.7   1003.4    0.00 
  22   21:40   0.00   50.3    91    1.5   275     4.2   1003.4    0.00 
  22   21:50   0.00   50.2    89    2.4   235     4.7   1003.4    0.00 
  22   22:00   0.00   50.1    90    2.7   218     6.4   1003.4    0.00 
  22   22:10   0.00   50.0    90    5.0   198     6.2   1003.7    0.00 
  22   22:20   0.00   49.7    92    6.7   172    10.6   1003.7    0.00 
  22   22:30   0.00   50.0    94    7.9   160    10.3   1003.7    0.01 
  22   22:40   0.00   50.0    94    6.3   157     8.8   1003.7    0.00 
  22   22:50   0.00   50.0    94    6.2   175     7.3   1003.7    0.00 
  22   23:00   0.00   49.9    95    5.7   181     6.5   1003.7    0.00 
  22   23:10   0.00   49.9    95    4.9   196     5.6   1003.7    0.00 
  22   23:20   0.00   49.9    96    4.9   202     5.3   1004.1    0.00 
  22   23:30   0.00   49.7    96    3.2   195     4.6   1004.1    0.00 
  22   23:40   0.00   49.7    96    3.2   211     4.1   1004.1    0.00 
  22   23:50   0.00   49.9    96    4.3   192     5.6   1004.1    0.00 
  23    0:00   0.00   49.9    95    3.1   201     4.4   1004.4    0.00 
  23    0:10   0.00   49.8    95    2.5   179     3.1   1004.4    0.00 
  23    0:20   0.00   49.7    95    2.3    98     3.6   1004.4    0.00 
  23    0:30   0.00   49.5    95    2.0   111     3.0   1004.4    0.00 
  23    0:40   0.00   49.3    95    1.6   141     2.6   1004.4    0.00 
  23    0:50   0.00   49.3    94    2.6   159     3.7   1004.7    0.00 
  23    1:00   0.00   48.9    95    2.9   154     3.7   1004.4    0.00 
  23    1:10   0.00   49.0    96    3.5   141     4.3   1004.4    0.00 
  23    1:20   0.00   48.7    96    3.9   107     4.7   1004.4    0.00 
  23    1:30   0.00   48.7    97    3.1    98     4.0   1004.4    0.00 
  23    1:40   0.00   48.5    97    1.9   120     3.4   1004.7    0.00 
  23    1:50   0.00   48.3    97    4.5   145     6.3   1004.7    0.00 
  23    2:00   0.00   48.2    97    3.6   140     4.8   1004.7    0.00 
  23    2:10   0.00   48.1    98    3.6   156     5.4   1005.1    0.00 
  23    2:20   0.00   48.0    98    6.6   179     8.4   1005.1    0.00 
  23    2:30   0.00   48.7    98    8.0   184     9.2   1005.1    0.00 
  23    2:40   0.00   49.0    96    7.4   190     9.3   1004.7    0.00 
  23    2:50   0.00   48.9    94    6.3   219     8.3   1005.1    0.00 
  23    3:00   0.00   48.9    94    5.5   233     7.8   1005.1    0.00 
  23    3:10   0.00   49.1    94    6.8   257     8.3   1005.1    0.00 
  23    3:20   0.00   49.6    93    7.3   274     9.1   1005.1    0.00 
  23    3:30   0.00   49.8    93    8.7   280    13.1   1005.1    0.00 
  23    3:40   0.00   49.3    91    6.1   318     8.7   1005.1    0.00 
  23    3:50   0.00   49.0    89    3.4   343     5.0   1005.1    0.00 
  23    4:00   0.00   49.0    88    1.7   349     2.6   1005.4    0.00 
  23    4:10   0.00   48.2    90    1.4    58     2.4   1005.4    0.00 
  23    4:20   0.00   47.4    92    1.6    60     2.3   1005.4    0.00 
  23    4:30   0.00   47.1    93    1.0     6     1.5   1005.4    0.00 
  23    4:40   0.00   47.1    94    2.5   275     8.0   1005.8    0.00 
  23    4:50   0.00   47.5    91   10.3   238    20.7   1006.1    0.19 
  23    5:00   0.00   47.0    91    5.8   183    10.3   1005.8    0.03 
  23    5:10   0.00   46.9    92    5.0   164     6.3   1005.8    0.00 
  23    5:20   0.00   47.3    94    7.1   147     8.2   1005.8    0.00 
  23    5:30   0.00   47.6    96    6.1   121     7.5   1005.8    0.00 
  23    5:40   0.00   47.4    97    4.3   106     5.5   1006.1    0.00 
  23    5:50   0.00   47.1    97    2.9    94     3.7   1006.1    0.00 
  23    6:00   0.00   46.9    96    4.9    95     6.1   1006.1    0.00 
  23    6:10   0.00   46.3    97    5.5   104     5.9   1006.4    0.00 
  23    6:20   0.00   45.7    97    6.2   108     7.3   1006.4    0.00 
  23    6:30   0.00   45.4    97    6.9   107     7.5   1006.4    0.00 
  23    6:40   0.00   45.6    97    6.2   115     6.9   1006.8    0.00 
  23    6:50   0.00   45.8    98    6.4   129     7.5   1006.8    0.00 
  23    7:00   0.00   46.7    98    6.8   129     7.5   1006.8    0.00 
  23    7:10   0.00   46.5    99    5.2   133     5.8   1007.1    0.00 
  23    7:20   0.00   46.5    99    5.9   141     6.7   1007.1    0.00 
  23    7:30   0.00   46.6    99    5.4   159     6.9   1007.5    0.00 
  23    7:40   0.01   47.1    99    5.2   168     6.1   1007.5    0.00 
  23    7:50   0.03   46.9    98    5.0   170     6.1   1007.5    0.00 
  23    8:00   0.04   47.0    98    4.5   173     5.4   1007.8    0.00 
  23    8:10   0.05   47.1    98    4.2   161     4.6   1007.8    0.00 
  23    8:20   0.07   47.1    98    4.7   170     5.6   1007.8    0.00 
  23    8:30   0.07   47.4    98    5.6   172     7.0   1008.1    0.00 
  23    8:40   0.08   47.7    97    5.6   172     6.6   1008.1    0.00 
  23    8:50   0.08   48.4    96    6.6   175     7.3   1008.5    0.00 
  23    9:00   0.20   49.6    96    5.6   168     6.6   1008.5    0.00 
  23    9:10   0.27   51.4    91    4.3   151     5.6   1008.5    0.00 
  23    9:20   0.33   52.0    90    4.7   110     6.1   1008.5    0.00 
  23    9:30   0.39   52.7    90    5.0   117     9.1   1008.5    0.00 
  23    9:40   0.24   53.7    87    4.9   147     6.9   1008.8    0.00 
  23    9:50   0.29   56.8    85    4.8   156     7.3   1008.8    0.00 
  23   10:00   0.14   55.6    85    6.2   174     8.2   1009.1    0.00 
  23   10:10   0.11   54.6    85    7.4   174     9.5   1009.1    0.00 
  23   10:20   0.20   54.6    86    7.5   166     9.8   1009.1    0.00 
  23   10:30   0.38   54.7    85    8.0   137    10.4   1009.1    0.00 
  23   10:40   0.32   54.1    85    7.4   150    11.2   1009.1    0.00 
  23   10:50   0.41   53.4    83    8.7   155    11.2   1009.1    0.00 
  23   11:00   0.59   54.0    81    7.3   145    11.1   1008.8    0.00 
  23   11:10   0.51   54.5    80    7.6   155    11.3   1008.8    0.00 
  23   11:20   0.44   55.0    77    6.9   181     9.7   1008.8    0.00 
  23   11:30   0.25   54.6    76    6.9   184    10.2   1008.8    0.00 
  23   11:40   0.41   54.4    76    6.4   193     9.7   1008.8    0.00 
  23   11:50   0.38   55.3    73    7.7   192    10.9   1008.8    0.00 
  23   12:00   0.25   54.6    75    5.7   195     9.4   1008.5    0.00 
  23   12:10   0.12   54.4    74    4.8   187     7.0   1008.5    0.00 
  23   12:20   0.14   54.2    77    6.8   186    11.0   1008.5    0.00 
  23   12:30   0.20   54.2    77    8.5   191    10.4   1008.5    0.00 
  23   12:40   0.29   54.3    77    8.1   209    11.3   1008.5    0.00 
  23   12:50   0.63   55.2    76    8.4   215    11.0   1008.5    0.00 
  23   13:00   0.55   55.5    75    7.9   200    11.6   1008.1    0.00 

Return to Jepson Prairie Reserve graphs page.


Western Regional Climate Center,wrcc@dri.edu